Warren, Michigan
Current Conditions -  °F | °C
As of 7:53 AM on Friday 28 Nov 2014 (Local Time) from KDET Reporting Station
Clear Clear  
Wind Chill: 21°   Ceiling: Unl
Heat Index: 21°   Visibility: 10mi
Dew Point:   Wind: 3mph
Humidity: 55%   Direction: 280°W
Pressure: 30.35"   Gusts: NA
Location:  42.51°N, 83.03°W
Report Text: KDET 281253Z 28003KT 10SM CLR M06/M14 A3035 RMK AO2 SLP286 T10611139
Loading
Personal Weather Stations






























Interactive Weather Map New forecast layout! Learn more

10-Day Weather Forecast

Advertisements
Track Severe Weather on mobile